Colfax, WA

11:46 AM PDT on September 18, 2014 (GMT -0700)
APRSWXNET Pullman WA US | Change Station
CLOSE
Current Station
Personal Weather Station
Location: Pullman, WA
Elevation: 2583 ft
Nearby Weather Stations

Elev 2583 ft 46.75 °N, 117.18 °W | Updated 45 minutes ago

Mostly Cloudy
Mostly Cloudy
71 °F
Feels Like 77 °F
N
10
Wind Variable Wind from West
Gusts 16.0 mph

Today
High -- | Low -- °F
--% Chance of Precip.
Yesterday
High -- | Low -- °F
Precip. -- in
6:31 AM 6:55 PM
Waning Crescent, 25% visible
Pressure 29.78 in
Visibility 9.0 miles
Clouds Mostly Cloudy 11000 ft
Heat Index 77 °F
Dew Point 45 °F
Humidity 39%
Rainfall 0.00 in
Snow Depth 0 in , 1 in , 0 in
UV 3 out of 12
Pollen 7.40 out of 12
Air Quality Not available.
Flu Activity Not available.
METAR KPUW 181753Z AUTO 27008KT 9SM BKN110 23/05 A2981 RMK AO2 SLP083 T02280050 10233 20094 53010

More Conditions Fewer Conditions

Pressure 29.78 in
Visibility 9.0 miles
Clouds Mostly Cloudy 11000 ft
Heat Index 77 °F
Dew Point 45 °F
Humidity 39%
Rainfall 0.00 in
Snow Depth 0 in , 1 in , 0 in
UV 3 out of 12
Pollen 7.40 out of 12
Air Quality Not available.
Flu Activity Not available.
METAR KPUW 181753Z AUTO 27008KT 9SM BKN110 23/05 A2981 RMK AO2 SLP083 T02280050 10233 20094 53010

More Conditions Fewer Conditions

10-Day Weather Forecast

Almanac

Astronomy

Sep. 18, 2014 Rise Set
Actual Time 6:31 AM PDT 6:55 PM PDT
Civil Twilight 6:00 AM PDT 7:25 PM PDT
Nautical Twilight 5:24 AM PDT 8:01 PM PDT
Astronomical Twilight 4:47 AM PDT 8:38 PM PDT
Moon 1:12 AM PDT 4:02 PM PDT
Length of Visible Light 13h 24m
Length of Day
12h 23m
Tomorrow will be 3m 20s shorter.
Waning Crescent, 25% of the Moon is Illuminated
Today
Waning Crescent
Sep 24
New
Oct 1
First Quarter
Oct 8
Full
Oct 15
Last Quarter

Today's Extremes

State Highs State Lows

Community

WunderPhotos

Upload Photos

1,754,417 photos uploaded!

Nearby

Snow Depth

Station Depth Elevation
Swift Creek 0 in 3770 ft
Quartz Peak 1 in 4700 ft
Trough 0 in 5300 ft
Harts Pass 0 in 6500 ft
Mf Nooksack 0 in 4980 ft

Earthquake Activity

City Distance Mag. Time & Date
No recent earthquake activity has been reported nearby.
Minimum magnitude displayed is 2.5.

Coastal Water Temperatures

Place Temperature
No Stations Reporting

Nearby Weather Stations